Time;durP1;ratioP1;P1;durP2;ratioP2;P2;SDS_P1;SDS_P2;PMS_P1;PMS_P2;Temp;Humidity;BMP_temperature;BMP_pressure;BME280_temperature;BME280_humidity;BME280_pressure;Samples;Min_cycle;Max_cycle;Signal;HPM_P1;HPM_P2
2021/06/11 00:02:17;;;;;;;6.53;4.75;;;17.30;74.00;;;17.02;60.73;95185.72;5062122;28;20207;-82
2021/06/11 00:04:44;;;;;;;6.32;5.25;;;17.30;74.20;;;17.05;59.92;95182.59;5027281;28;20285;-82
2021/06/11 00:07:10;;;;;;;5.72;5.03;;;17.20;74.20;;;17.04;60.12;95188.91;4941667;28;20284;-82
2021/06/11 00:09:36;;;;;;;5.50;5.00;;;17.20;74.30;;;17.07;60.06;95191.94;4744577;29;20250;-82
2021/06/11 00:13:27;;;;;;;5.53;4.93;;;17.20;74.30;;;17.01;59.67;95181.44;5144894;27;20646;-81
2021/06/11 00:15:54;;;;;;;8.00;5.50;;;17.20;74.20;;;16.99;59.89;95176.38;5086081;28;20233;-83
2021/06/11 00:18:20;;;;;;;5.20;4.70;;;17.20;74.30;;;17.00;59.99;95179.81;5098467;28;20279;-82
2021/06/11 00:20:47;;;;;;;6.75;4.93;;;17.20;74.30;;;16.96;60.05;95180.25;5047093;28;20298;-81
2021/06/11 00:23:13;;;;;;;5.50;4.93;;;17.30;74.40;;;16.95;60.17;95183.13;5019654;28;20650;-82
2021/06/11 00:25:40;;;;;;;5.88;5.25;;;17.30;74.40;;;16.93;60.98;95188.66;4980071;28;20708;-82
2021/06/11 00:28:07;;;;;;;5.63;5.13;;;17.10;74.70;;;16.92;60.89;95178.31;4930502;28;20300;-82
2021/06/11 00:30:34;;;;;;;6.55;5.25;;;17.10;74.70;;;16.92;60.64;95180.94;4778213;29;20223;-82
2021/06/11 00:34:38;;;;;;;5.60;5.10;;;17.10;74.70;;;16.88;60.57;95177.91;5133804;27;20989;-81
2021/06/11 00:37:05;;;;;;;7.15;5.75;;;17.10;74.70;;;16.87;60.66;95175.47;5067916;27;20224;-82
2021/06/11 00:39:32;;;;;;;5.55;5.05;;;17.10;74.80;;;16.85;60.41;95177.53;5070743;28;20288;-82
2021/06/11 00:42:03;;;;;;;5.47;4.97;;;17.10;74.70;;;16.84;60.24;95182.03;5065037;28;20211;-82
2021/06/11 00:44:30;;;;;;;5.07;4.50;;;17.00;74.50;;;16.76;59.62;95169.06;5033667;28;20662;-82
2021/06/11 00:46:57;;;;;;;6.07;4.30;;;17.00;74.30;;;16.76;59.12;95174.38;4985939;28;20683;-82
2021/06/11 00:49:23;;;;;;;4.95;4.07;;;17.00;74.20;;;16.73;58.89;95177.50;4902887;29;20236;-82
2021/06/11 00:51:50;;;;;;;4.30;3.90;;;17.00;74.10;;;16.68;59.19;95170.22;4845966;29;20244;-82
2021/06/11 00:56:04;;;;;;;6.40;4.22;;;17.00;74.00;;;16.57;59.01;95178.91;5150276;27;20620;-82
2021/06/11 00:58:31;;;;;;;5.22;4.72;;;16.80;73.70;;;16.51;59.62;95169.22;5098433;27;20239;-82
2021/06/11 01:00:57;;;;;;;5.70;5.20;;;16.80;74.00;;;16.48;59.91;95176.56;5089945;28;20285;-83
2021/06/11 01:03:24;;;;;;;5.68;5.18;;;16.80;74.20;;;16.47;60.00;95166.19;5064706;28;20222;-82
2021/06/11 01:05:52;;;;;;;5.63;4.95;;;16.70;74.30;;;16.44;59.28;95164.00;5000785;28;20284;-82
2021/06/11 01:08:19;;;;;;;5.20;4.70;;;16.70;74.30;;;16.41;59.24;95167.88;4944380;28;20228;-82
2021/06/11 01:10:47;;;;;;;4.97;4.47;;;16.60;74.20;;;16.36;59.18;95169.59;4826222;29;20288;-81
2021/06/11 01:13:16;;;;;;;4.90;4.50;;;16.60;74.60;;;16.35;59.08;95171.44;4663965;30;20283;-81
2021/06/11 01:17:45;;;;;;;5.00;4.50;;;16.60;74.40;;;16.28;58.96;95173.34;5150268;27;20536;-81
2021/06/11 01:20:14;;;;;;;4.32;3.92;;;16.50;73.90;;;16.24;59.35;95166.88;5087525;28;20212;-82
2021/06/11 01:23:36;;;;;;;5.20;4.70;;;16.50;74.20;;;16.18;58.81;95171.22;5032700;28;20290;-82
2021/06/11 01:26:23;;;;;;;4.90;4.50;;;16.50;74.60;;;16.11;59.16;95168.66;5001219;28;20205;-81
2021/06/11 01:29:22;;;;;;;5.55;5.05;;;16.40;74.40;;;16.07;58.75;95170.09;4971495;28;20228;-82
2021/06/11 01:31:56;;;;;;;5.15;4.68;;;16.40;74.40;;;16.03;58.96;95170.75;4784929;29;20216;-84
2021/06/11 01:34:38;;;;;;;4.65;4.25;;;16.30;74.20;;;15.93;58.99;95164.16;4645545;30;20615;-81
2021/06/11 01:39:27;;;;;;;4.50;4.10;;;16.40;74.60;;;15.87;58.88;95167.66;5136149;27;20659;-82
2021/06/11 01:41:55;;;;;;;4.80;4.38;;;16.30;73.90;;;15.87;59.05;95175.59;5102846;28;20209;-82
2021/06/11 01:44:25;;;;;;;5.05;4.55;;;16.20;74.10;;;15.83;59.02;95177.03;5080179;28;20221;-81
2021/06/11 01:46:57;;;;;;;5.05;4.55;;;16.20;74.30;;;15.79;59.47;95174.00;5066200;28;20208;-81
2021/06/11 01:49:27;;;;;;;5.63;5.13;;;16.10;74.70;;;15.77;59.74;95170.78;4973925;28;20222;-81
2021/06/11 01:51:56;;;;;;;5.53;5.03;;;16.10;74.80;;;15.76;60.19;95165.69;4950939;28;20566;-82
2021/06/11 01:54:25;;;;;;;6.28;5.57;;;16.00;74.80;;;15.73;60.55;95164.28;4928642;28;20584;-82
2021/06/11 01:56:53;;;;;;;6.70;5.78;;;16.10;75.00;;;15.72;61.23;95172.44;4832052;29;20216;-82
2021/06/11 01:59:27;;;;;;;6.60;5.90;;;16.10;75.30;;;15.70;61.66;95167.38;5135831;27;20396;-82
2021/06/11 02:01:55;;;;;;;6.85;6.15;;;16.00;75.50;;;15.68;62.90;95170.25;5084830;28;20342;-82
2021/06/11 02:04:22;;;;;;;6.88;6.22;;;16.00;76.00;;;15.68;62.97;95169.44;5059326;28;20222;-82
2021/06/11 02:06:50;;;;;;;7.80;7.00;;;16.10;76.40;;;15.66;63.79;95171.47;5040440;28;20208;-82
2021/06/11 02:09:19;;;;;;;7.68;6.90;;;16.00;76.80;;;15.67;63.66;95166.00;5016687;28;20314;-83
2021/06/11 02:11:46;;;;;;;7.55;6.55;;;16.00;77.10;;;15.68;63.36;95174.72;4935774;28;20248;-81
2021/06/11 02:14:15;;;;;;;7.90;7.15;;;16.00;76.90;;;15.67;63.72;95163.34;4904251;29;20231;-82
2021/06/11 02:16:45;;;;;;;7.75;6.95;;;15.90;77.20;;;15.69;64.17;95168.41;4741075;29;20288;-82
2021/06/11 02:19:21;;;;;;;7.80;6.78;;;16.00;77.70;;;15.69;64.51;95171.06;5137324;27;20408;-82
2021/06/11 02:21:48;;;;;;;7.47;6.70;;;16.00;77.70;;;15.71;64.24;95163.72;5068464;28;20637;-82
2021/06/11 02:24:14;;;;;;;7.93;6.25;;;15.90;77.60;;;15.72;64.00;95169.81;5054676;28;20222;-82
2021/06/11 02:26:41;;;;;;;7.30;6.60;;;16.00;77.60;;;15.72;64.68;95175.91;5072813;28;20263;-81
2021/06/11 02:29:08;;;;;;;7.43;6.72;;;16.00;77.80;;;15.75;65.19;95179.97;5005503;28;20221;-82
2021/06/11 02:31:35;;;;;;;7.80;7.00;;;16.00;79.10;;;15.75;64.58;95166.75;4963210;28;20218;-82
2021/06/11 02:34:01;;;;;;;9.60;6.90;;;16.00;78.40;;;15.80;64.76;95175.63;4882001;28;20263;-82
2021/06/11 02:36:29;;;;;;;7.13;6.43;;;16.00;78.40;;;15.79;65.27;95171.34;4726684;29;20232;-83
2021/06/11 02:39:08;;;;;;;8.10;7.22;;;16.00;78.40;;;15.83;65.71;95179.69;5137416;27;20405;-82
2021/06/11 02:41:49;;;;;;;8.13;7.40;;;16.10;79.70;;;15.83;65.39;95172.59;5108423;28;20201;-81
2021/06/11 02:44:16;;;;;;;8.02;7.22;;;16.10;78.90;;;15.86;65.96;95167.91;5115400;28;20691;-81
2021/06/11 02:47:16;;;;;;;7.40;6.65;;;16.10;78.90;;;15.91;64.94;95173.34;5073854;28;20292;-82
2021/06/11 02:49:53;;;;;;;7.20;6.43;;;16.10;79.00;;;15.92;64.05;95165.16;4921718;29;20240;-82
2021/06/11 02:52:23;;;;;;;8.60;6.30;;;16.10;78.90;;;15.94;63.96;95165.78;4879104;29;20205;-82
2021/06/11 02:54:55;;;;;;;7.18;6.47;;;16.20;79.30;;;15.92;64.41;95153.78;4847294;29;20297;-82
2021/06/11 02:58:17;;;;;;;6.90;6.00;;;16.10;78.90;;;15.93;63.43;95156.22;5148040;27;20611;-82
2021/06/11 03:00:45;;;;;;;7.20;6.43;;;16.20;78.50;;;15.90;63.93;95156.63;5082134;28;20205;-82
2021/06/11 03:03:27;;;;;;;7.22;6.53;;;16.20;78.30;;;15.94;64.42;95159.66;5067673;28;20222;-81
2021/06/11 03:06:00;;;;;;;7.32;6.63;;;16.20;79.00;;;15.93;64.21;95161.50;5029214;28;20210;-81
2021/06/11 03:08:32;;;;;;;7.30;6.60;;;16.10;78.70;;;15.95;64.39;95163.91;5024234;28;20224;-82
2021/06/11 03:11:30;;;;;;;7.40;6.60;;;16.30;78.80;;;15.95;64.13;95169.22;4952411;28;20217;-81
2021/06/11 03:13:58;;;;;;;8.27;6.40;;;16.20;78.60;;;15.97;64.48;95172.44;4820212;29;20237;-81
2021/06/11 03:19:06;;;;;;;7.72;6.25;;;16.20;78.60;;;16.04;63.64;95169.72;5137537;27;20567;-82
2021/06/11 03:21:43;;;;;;;6.35;5.38;;;16.30;78.90;;;16.06;63.47;95162.38;5083267;28;20209;-82
2021/06/11 03:24:16;;;;;;;6.80;5.63;;;16.20;78.80;;;16.07;63.19;95172.75;5095574;28;20233;-82
2021/06/11 03:27:21;;;;;;;6.88;5.95;;;16.20;78.20;;;16.04;62.60;95164.44;5024588;28;20293;-81
2021/06/11 03:30:05;;;;;;;8.07;6.07;;;16.20;78.50;;;16.10;62.59;95159.09;4943925;28;20233;-81
2021/06/11 03:32:41;;;;;;;6.40;5.80;;;16.20;78.40;;;16.11;62.73;95159.88;4903408;29;20245;-81
2021/06/11 03:35:16;;;;;;;6.90;6.28;;;16.20;78.10;;;16.16;62.65;95166.16;4799955;29;20229;-82
2021/06/11 03:38:31;;;;;;;6.50;5.82;;;16.20;78.30;;;16.20;62.67;95161.22;5140208;27;20557;-82
2021/06/11 03:40:59;;;;;;;8.07;7.28;;;16.30;78.20;;;16.24;62.97;95167.69;5100891;28;20655;-82
2021/06/11 03:43:29;;;;;;;8.27;6.25;;;16.30;78.20;;;16.28;63.00;95171.53;5103036;28;20304;-81
2021/06/11 03:45:57;;;;;;;8.20;7.40;;;16.30;78.60;;;16.30;63.62;95169.44;5069551;28;20202;-81
2021/06/11 03:48:27;;;;;;;9.90;7.72;;;16.50;78.90;;;16.35;64.16;95175.94;5073998;28;20218;-81
2021/06/11 03:50:55;;;;;;;8.23;7.43;;;16.40;79.20;;;16.39;64.39;95171.78;5002072;28;20210;-82
2021/06/11 03:53:24;;;;;;;7.93;7.13;;;16.50;79.30;;;16.43;64.51;95170.31;4930136;28;20230;-81
2021/06/11 03:56:07;;;;;;;8.75;7.80;;;16.50;79.30;;;16.46;64.56;95160.09;5130081;27;20665;-82
2021/06/11 03:58:41;;;;;;;8.55;7.15;;;16.50;79.30;;;16.55;64.41;95167.72;5076471;28;20221;-81
2021/06/11 04:01:15;;;;;;;9.80;8.30;;;16.60;79.30;;;16.60;65.08;95163.38;5079345;28;20199;-82
2021/06/11 04:03:42;;;;;;;8.23;7.43;;;16.70;79.40;;;16.65;64.79;95168.03;5037514;28;20235;-82
2021/06/11 04:06:20;;;;;;;10.80;8.48;;;16.70;79.40;;;16.68;64.97;95159.63;4955424;28;20724;-82
2021/06/11 04:08:52;;;;;;;8.75;7.93;;;16.70;79.40;;;16.75;64.91;95170.13;4935411;28;20219;-81
2021/06/11 04:11:26;;;;;;;10.35;8.18;;;16.80;79.40;;;16.78;65.23;95167.03;4801273;29;20627;-82
2021/06/11 04:14:49;;;;;;;9.88;8.40;;;16.80;79.40;;;16.78;65.32;95162.56;5132876;27;20582;-83
2021/06/11 04:17:22;;;;;;;8.63;7.72;;;17.00;79.60;;;16.78;64.83;95162.56;5073111;28;20213;-84
2021/06/11 04:19:54;;;;;;;12.27;8.07;;;16.90;79.50;;;16.79;65.68;95161.50;5066904;28;20720;-83
2021/06/11 04:22:28;;;;;;;8.20;7.40;;;16.90;79.50;;;16.83;65.14;95167.16;5063958;28;20199;-83
2021/06/11 04:24:57;;;;;;;10.60;8.27;;;17.00;79.60;;;16.85;65.07;95170.41;5016870;28;20244;-82
2021/06/11 04:27:25;;;;;;;9.02;8.13;;;17.00;79.60;;;16.88;65.09;95169.97;4953798;28;20206;-82
2021/06/11 04:29:53;;;;;;;7.97;7.18;;;17.10;79.70;;;16.92;64.92;95168.50;4895820;29;21065;-83
2021/06/11 04:35:11;;;;;;;8.98;8.07;;;17.00;79.60;;;16.98;64.99;95166.78;5110713;27;20594;-82
2021/06/11 04:37:38;;;;;;;10.10;7.82;;;17.00;79.60;;;17.03;64.77;95169.56;5085908;28;20199;-83
2021/06/11 04:40:07;;;;;;;9.52;7.40;;;17.10;79.70;;;17.06;64.73;95176.25;5103002;28;20266;-82
2021/06/11 04:42:35;;;;;;;8.45;7.40;;;17.10;79.70;;;17.11;64.37;95163.94;5031409;28;20208;-82
2021/06/11 04:45:03;;;;;;;10.10;7.30;;;17.20;79.80;;;17.19;64.40;95165.47;5012359;28;20246;-82
2021/06/11 04:47:30;;;;;;;7.80;7.00;;;17.20;79.70;;;17.19;64.33;95157.50;4949402;28;20215;-82
2021/06/11 04:49:57;;;;;;;7.40;6.63;;;17.20;79.80;;;17.28;63.99;95174.72;4831020;29;20254;-83
2021/06/11 04:52:23;;;;;;;7.35;6.65;;;17.30;79.80;;;17.34;63.50;95164.22;4747570;29;20681;-81
2021/06/11 04:56:22;;;;;;;7.70;7.00;;;17.40;79.70;;;17.42;63.67;95166.56;5150610;27;20556;-82
2021/06/11 04:58:51;;;;;;;7.07;6.38;;;17.40;79.30;;;17.48;63.82;95167.47;5095027;27;20227;-82
2021/06/11 05:01:18;;;;;;;7.75;6.95;;;17.50;79.30;;;17.54;63.50;95171.84;5104106;28;20302;-82
2021/06/11 05:03:45;;;;;;;7.22;6.45;;;17.50;79.10;;;17.61;63.55;95172.56;5045592;28;20233;-83
2021/06/11 05:06:11;;;;;;;8.13;7.32;;;17.60;79.00;;;17.65;63.10;95170.25;4985746;28;20302;-82
2021/06/11 05:08:38;;;;;;;8.60;6.50;;;17.60;79.00;;;17.73;63.33;95173.38;5013132;28;20287;-82
2021/06/11 05:11:05;;;;;;;7.85;7.07;;;17.70;78.90;;;17.77;62.86;95171.06;4951577;28;20199;-83
2021/06/11 05:13:33;;;;;;;6.60;6.00;;;17.80;78.80;;;17.83;62.67;95183.41;4824040;29;20283;-83
2021/06/11 05:16:06;;;;;;;8.23;7.43;;;17.80;78.80;;;17.89;62.71;95179.03;5150524;27;20362;-83
2021/06/11 05:18:33;;;;;;;7.18;6.47;;;17.80;78.70;;;17.93;62.47;95178.34;5088489;28;20345;-82
2021/06/11 05:21:00;;;;;;;6.95;6.25;;;18.00;78.80;;;17.98;62.37;95177.69;5102464;28;20225;-83
2021/06/11 05:23:28;;;;;;;6.90;6.20;;;17.90;78.60;;;18.01;62.63;95174.56;5061573;28;20274;-83
2021/06/11 05:25:54;;;;;;;7.45;6.72;;;18.00;78.50;;;18.07;62.51;95189.53;4985471;28;20218;-82
2021/06/11 05:28:22;;;;;;;11.07;6.82;;;18.10;78.50;;;18.10;62.27;95182.16;4905392;29;20229;-83
2021/06/11 05:30:53;;;;;;;7.43;6.63;;;18.10;78.30;;;18.12;62.24;95186.19;4862642;29;20362;-83
2021/06/11 05:33:20;;;;;;;6.85;6.18;;;18.10;78.20;;;18.19;61.99;95181.56;4716840;29;20697;-82
2021/06/11 05:35:58;;;;;;;6.93;6.10;;;18.10;78.20;;;18.24;61.69;95186.19;5150581;27;20609;-82
2021/06/11 05:38:26;;;;;;;7.05;6.45;;;18.30;78.30;;;18.25;62.02;95179.84;5111681;27;20231;-82
2021/06/11 05:40:54;;;;;;;7.93;6.85;;;18.20;78.10;;;18.36;62.08;95180.88;5110117;28;20212;-82
2021/06/11 05:43:21;;;;;;;7.45;6.75;;;18.30;78.30;;;18.45;61.84;95178.66;5080156;28;20225;-82
2021/06/11 05:45:48;;;;;;;8.45;7.38;;;18.30;78.30;;;18.52;62.18;95189.97;5073664;28;20198;-85
2021/06/11 05:48:14;;;;;;;8.80;7.10;;;18.50;78.40;;;18.63;61.98;95183.00;4984891;28;20719;-82
2021/06/11 05:50:41;;;;;;;7.70;6.97;;;18.50;78.40;;;18.76;61.94;95185.38;4923221;28;20210;-83
2021/06/11 05:53:09;;;;;;;8.65;7.75;;;18.50;78.40;;;18.88;61.45;95191.47;4841491;29;20295;-83
2021/06/11 05:57:41;;;;;;;7.65;6.85;;;18.60;78.20;;;19.11;60.99;95205.72;5150072;27;20627;-81
2021/06/11 06:00:09;;;;;;;7.10;6.47;;;18.80;78.10;;;19.26;61.01;95193.75;5127854;27;20211;-81
2021/06/11 06:02:36;;;;;;;7.47;6.78;;;18.90;78.00;;;19.41;61.11;95190.53;5080971;28;20301;-82
2021/06/11 06:05:08;;;;;;;7.15;6.47;;;19.10;78.20;;;19.60;60.62;95188.44;5008515;28;20218;-81
2021/06/11 06:07:39;;;;;;;7.15;6.45;;;19.20;78.20;;;19.76;60.44;95190.31;4939377;28;20351;-81
2021/06/11 06:10:07;;;;;;;8.55;7.07;;;19.40;78.00;;;19.90;60.22;95198.78;4874641;29;20234;-81
2021/06/11 06:12:34;;;;;;;7.20;6.50;;;19.50;77.70;;;20.03;60.00;95180.88;4794076;29;20285;-80
2021/06/11 06:15:03;;;;;;;7.07;6.47;;;19.60;77.60;;;20.17;59.41;95190.13;4756002;29;20245;-81
2021/06/11 06:19:21;;;;;;;7.28;6.57;;;19.70;77.40;;;20.39;58.86;95197.34;5136490;27;20622;-81
2021/06/11 06:21:48;;;;;;;7.10;6.50;;;20.00;77.50;;;20.59;59.02;95192.28;5084271;28;20229;-82
2021/06/11 06:24:14;;;;;;;6.97;6.28;;;20.10;78.30;;;20.78;59.13;95190.09;5072149;28;20234;-81
2021/06/11 06:26:41;;;;;;;6.80;6.15;;;20.20;77.50;;;20.95;58.37;95189.22;5069178;28;20204;-81
2021/06/11 06:29:07;;;;;;;7.13;6.53;;;20.40;77.20;;;21.09;57.58;95189.63;5037829;28;20232;-81
2021/06/11 06:31:35;;;;;;;7.35;6.60;;;20.60;76.40;;;21.18;57.61;95174.78;4968922;28;20672;-80
2021/06/11 06:34:02;;;;;;;7.20;6.50;;;20.70;76.40;;;21.34;57.04;95177.59;4914336;29;20316;-81
2021/06/11 06:36:28;;;;;;;7.28;6.60;;;20.80;76.10;;;21.43;57.38;95163.56;4797557;29;20225;-80
2021/06/11 06:41:04;;;;;;;6.50;5.90;;;20.90;75.90;;;21.70;56.61;95183.25;5133355;27;20645;-80
2021/06/11 06:43:32;;;;;;;6.72;6.13;;;21.20;75.50;;;21.82;56.47;95175.88;5102651;28;20269;-80
2021/06/11 06:45:59;;;;;;;6.47;5.88;;;21.40;75.50;;;21.93;56.11;95174.06;5089334;28;20203;-80
2021/06/11 06:48:27;;;;;;;6.55;5.55;;;21.50;75.00;;;22.04;56.08;95169.59;5071618;28;20226;-82
2021/06/11 06:50:59;;;;;;;6.80;6.20;;;21.60;75.10;;;22.11;55.05;95172.06;4978673;28;20291;-81
2021/06/11 06:53:25;;;;;;;7.97;6.10;;;21.60;74.30;;;22.11;54.03;95172.84;4951607;28;20233;-81
2021/06/11 06:55:52;;;;;;;5.65;5.07;;;21.70;73.50;;;22.13;54.73;95173.41;4893291;28;20662;-83
2021/06/11 06:58:19;;;;;;;6.47;5.85;;;21.80;73.50;;;22.16;54.70;95172.09;4785848;29;20235;-81
2021/06/11 07:02:44;;;;;;;6.20;5.45;;;21.80;73.50;;;22.23;54.72;95175.34;5150148;27;20659;-82
2021/06/11 07:05:14;;;;;;;6.40;5.80;;;21.90;73.20;;;22.27;54.53;95171.06;5102149;28;20221;-82
2021/06/11 07:07:41;;;;;;;5.60;5.10;;;22.00;73.20;;;22.33;54.73;95180.72;5087912;28;20256;-82
2021/06/11 07:10:08;;;;;;;6.38;5.78;;;22.00;73.30;;;22.40;54.27;95169.84;5053236;28;20227;-81
2021/06/11 07:12:36;;;;;;;6.38;5.72;;;22.10;73.10;;;22.50;53.90;95169.88;5014561;28;20236;-81
2021/06/11 07:15:06;;;;;;;6.30;5.55;;;22.10;72.80;;;22.60;54.39;95171.78;4978291;28;20257;-85
2021/06/11 07:17:32;;;;;;;6.03;5.53;;;22.20;73.20;;;22.75;54.54;95170.22;4964556;28;20648;-81
2021/06/11 07:19:59;;;;;;;6.20;5.70;;;22.30;73.30;;;22.94;54.45;95167.88;4759389;29;20242;-82
2021/06/11 07:24:11;;;;;;;6.43;5.82;;;22.30;73.50;;;23.26;53.34;95172.25;5138389;27;20665;-82
2021/06/11 07:26:38;;;;;;;6.13;5.53;;;22.60;73.20;;;23.46;53.66;95182.97;5087794;28;20200;-81
2021/06/11 07:29:05;;;;;;;6.25;5.65;;;22.80;73.20;;;23.58;53.13;95173.88;5083800;28;20732;-81
2021/06/11 07:31:32;;;;;;;6.10;5.60;;;22.90;72.70;;;23.65;52.93;95174.41;5069783;28;20260;-82
2021/06/11 07:33:59;;;;;;;5.70;5.20;;;23.00;72.30;;;23.76;53.08;95177.91;5040613;28;20227;-81
2021/06/11 07:36:26;;;;;;;6.20;5.60;;;23.10;72.60;;;23.89;52.86;95181.88;4923146;29;20574;-81
2021/06/11 07:38:52;;;;;;;5.32;4.82;;;23.30;72.30;;;24.02;52.71;95172.53;4916479;29;20220;-82
2021/06/11 07:41:20;;;;;;;5.95;5.45;;;23.40;72.20;;;24.14;52.56;95181.09;4827186;29;20218;-81
2021/06/11 07:45:53;;;;;;;5.57;5.07;;;23.50;72.00;;;24.34;52.88;95168.69;5148938;27;20646;-81
2021/06/11 07:48:20;;;;;;;5.32;4.82;;;23.70;72.20;;;24.45;52.58;95187.16;5089293;28;20744;-81
2021/06/11 07:50:47;;;;;;;5.55;5.05;;;23.80;71.90;;;24.43;51.56;95167.06;5108551;28;20236;-81
2021/06/11 07:53:14;;;;;;;5.68;5.18;;;23.90;70.90;;;24.50;51.58;95175.63;5071419;28;20276;-81
2021/06/11 07:55:41;;;;;;;6.55;5.95;;;24.00;71.10;;;24.48;49.96;95175.09;5023252;28;20223;-81
2021/06/11 07:58:08;;;;;;;6.55;4.97;;;24.10;69.80;;;24.49;50.68;95176.69;4984938;28;20233;-82
2021/06/11 08:00:35;;;;;;;5.82;5.32;;;24.10;70.30;;;24.45;50.08;95184.50;4886462;28;20274;-82
2021/06/11 08:03:03;;;;;;;5.88;5.28;;;24.10;69.60;;;24.44;50.88;95174.03;4651631;29;20298;-82
2021/06/11 08:07:07;;;;;;;5.85;5.22;;;24.10;70.00;;;24.30;50.02;95173.81;5132587;27;20585;-80
2021/06/11 08:09:34;;;;;;;6.63;5.60;;;24.10;69.20;;;24.23;49.94;95165.25;5089983;28;20315;-81
2021/06/11 08:12:00;;;;;;;6.00;5.50;;;24.10;68.80;;;24.14;50.56;95168.50;5065218;28;20492;-82
2021/06/11 08:14:27;;;;;;;7.35;5.82;;;24.10;70.20;;;24.12;50.50;95173.31;5055334;28;20244;-81
2021/06/11 08:16:54;;;;;;;6.43;5.85;;;24.00;69.20;;;24.12;50.89;95167.97;5047592;28;20252;-82
2021/06/11 08:19:20;;;;;;;5.82;5.32;;;24.00;69.20;;;24.09;50.12;95170.38;4958443;28;20277;-81
2021/06/11 08:21:47;;;;;;;6.10;5.47;;;24.00;68.90;;;24.06;50.62;95170.91;4875285;29;20650;-81
2021/06/11 08:24:13;;;;;;;5.43;4.97;;;23.90;69.10;;;24.07;50.72;95165.31;4862833;29;20234;-81
2021/06/11 08:28:45;;;;;;;6.80;6.20;;;23.90;69.10;;;23.98;49.93;95181.09;5140353;27;21094;-81
2021/06/11 08:31:11;;;;;;;6.00;5.47;;;23.90;68.70;;;23.96;50.22;95172.56;5082558;28;20583;-82
2021/06/11 08:33:38;;;;;;;5.53;5.10;;;23.80;68.70;;;23.96;50.54;95175.22;5093861;28;20283;-81
2021/06/11 08:36:05;;;;;;;6.18;5.57;;;23.80;69.00;;;23.99;50.11;95176.56;5060574;28;20205;-81
2021/06/11 08:38:31;;;;;;;6.32;5.82;;;23.80;69.00;;;24.01;50.12;95177.09;4965412;28;20273;-81
2021/06/11 08:40:58;;;;;;;6.38;5.78;;;23.80;68.90;;;24.06;49.90;95176.25;4938248;28;20334;-82
2021/06/11 08:43:25;;;;;;;6.95;6.35;;;23.80;68.90;;;24.12;49.56;95177.84;4914345;29;20270;-82
2021/06/11 08:45:53;;;;;;;6.80;6.20;;;23.80;68.60;;;24.20;49.60;95179.19;4892521;29;20320;-78
2021/06/11 08:51:11;;;;;;;7.40;6.70;;;23.80;68.70;;;24.27;48.84;95180.50;5150068;27;20642;-81
2021/06/11 08:53:38;;;;;;;7.32;6.63;;;23.90;68.20;;;24.27;48.88;95175.16;5103903;27;20226;-81
2021/06/11 08:56:05;;;;;;;7.50;6.80;;;23.90;68.10;;;24.24;48.54;95183.75;5053956;28;20215;-80
2021/06/11 08:58:38;;;;;;;7.25;6.55;;;23.90;67.60;;;24.27;49.06;95177.03;5067576;28;20699;-81
2021/06/11 09:01:05;;;;;;;7.30;6.60;;;24.00;68.00;;;24.33;49.02;95170.59;5025808;28;20241;-80
2021/06/11 09:03:49;;;;;;;7.50;6.80;;;24.00;68.30;;;24.40;49.03;95183.69;5042708;28;20219;-80
2021/06/11 09:06:17;;;;;;;5.88;5.38;;;24.00;68.10;;;24.45;49.11;95186.38;4847184;29;20220;-82
2021/06/11 09:08:53;;;;;;;6.60;6.05;;;24.10;68.40;;;24.48;49.09;95177.78;4712067;30;20715;-82
2021/06/11 09:14:08;;;;;;;6.60;6.00;;;24.10;68.00;;;24.56;49.28;95187.13;5139470;27;20597;-81
2021/06/11 09:16:47;;;;;;;7.07;6.38;;;24.20;68.10;;;24.52;48.42;95184.19;5085818;28;20311;-82
2021/06/11 09:19:19;;;;;;;6.28;5.75;;;24.20;67.60;;;24.52;48.80;95181.50;5068164;28;20229;-81
2021/06/11 09:22:02;;;;;;;6.82;6.22;;;24.20;67.70;;;24.55;48.94;95177.50;4992632;28;20657;-81
2021/06/11 09:24:32;;;;;;;7.43;6.72;;;24.30;68.10;;;24.59;48.67;95176.66;4964012;28;20677;-81
2021/06/11 09:27:00;;;;;;;7.15;6.43;;;24.30;67.60;;;24.65;48.71;95177.44;4954279;28;20753;-81
2021/06/11 09:29:44;;;;;;;6.10;5.60;;;24.30;67.60;;;24.73;49.22;95168.88;4910132;29;20724;-83
2021/06/11 09:33:11;;;;;;;7.70;6.97;;;24.30;68.10;;;24.86;48.79;95159.41;5146978;27;21089;-82
2021/06/11 09:35:54;;;;;;;6.75;6.07;;;24.50;67.70;;;25.01;48.62;95157.72;5102254;28;20652;-83
2021/06/11 09:38:26;;;;;;;6.20;5.70;;;24.50;67.60;;;25.16;48.69;95151.44;5068303;28;20236;-81
2021/06/11 09:41:00;;;;;;;7.60;6.90;;;24.60;68.20;;;25.28;47.64;95146.53;5032575;28;20274;-81
2021/06/11 09:43:28;;;;;;;7.18;6.57;;;24.70;67.20;;;25.34;47.76;95144.59;4970302;28;20241;-81
2021/06/11 09:46:01;;;;;;;6.22;5.63;;;24.80;67.20;;;25.43;48.04;95148.34;4983060;28;20226;-80
2021/06/11 09:48:29;;;;;;;7.00;6.40;;;24.90;67.30;;;25.46;46.97;95141.59;5004113;28;20373;-81
2021/06/11 09:50:57;;;;;;;7.47;6.53;;;24.90;67.30;;;25.46;46.91;95134.34;4914520;28;20261;-81
2021/06/11 09:55:04;;;;;;;7.15;6.45;;;25.00;66.90;;;25.49;47.34;95138.38;5130327;27;20577;-81
2021/06/11 09:57:34;;;;;;;7.75;7.05;;;25.10;66.80;;;25.44;45.34;95133.84;5078584;28;20231;-82
2021/06/11 10:00:03;;;;;;;7.50;6.80;;;25.10;65.60;;;25.47;46.74;95143.22;5028771;28;20228;-82
2021/06/11 10:02:35;;;;;;;6.50;5.90;;;25.10;65.90;;;25.51;46.15;95130.81;5039519;28;20227;-81
2021/06/11 10:05:03;;;;;;;7.38;6.68;;;25.20;66.00;;;25.55;46.13;95129.19;4975378;28;20243;-82
2021/06/11 10:07:29;;;;;;;7.18;6.53;;;25.20;65.90;;;25.59;45.79;95132.09;4852856;29;20215;-81
2021/06/11 10:09:56;;;;;;;7.55;6.88;;;25.20;65.70;;;25.71;46.10;95132.53;4707664;29;20246;-82
2021/06/11 10:12:23;;;;;;;7.47;6.57;;;25.20;65.90;;;25.80;45.13;95140.78;4458607;31;20227;-82
2021/06/11 10:16:56;;;;;;;6.80;6.20;;;25.30;65.50;;;25.77;44.70;95142.16;5133147;27;20564;-81
2021/06/11 10:19:27;;;;;;;8.20;6.72;;;25.40;64.60;;;25.73;44.58;95131.16;5100152;28;20664;-81
2021/06/11 10:21:54;;;;;;;7.43;6.72;;;25.40;64.50;;;25.81;45.49;95142.38;5066216;28;20632;-82
2021/06/11 10:24:21;;;;;;;7.18;6.53;;;25.40;65.20;;;25.89;45.09;95134.50;5101403;28;20213;-81
2021/06/11 10:26:50;;;;;;;7.00;6.30;;;25.50;65.00;;;26.08;45.59;95124.94;5038835;28;20315;-81
2021/06/11 10:29:20;;;;;;;6.55;5.95;;;25.50;65.40;;;26.37;45.71;95130.28;4999908;28;20688;-82
2021/06/11 10:31:48;;;;;;;7.07;6.47;;;25.60;65.60;;;26.71;45.17;95125.81;5008340;28;20298;-81
2021/06/11 10:34:19;;;;;;;7.22;6.53;;;25.80;65.90;;;27.08;45.49;95116.97;4863096;28;20249;-82
2021/06/11 10:36:56;;;;;;;6.65;6.05;;;26.00;66.00;;;27.54;44.68;95120.88;5148514;27;20570;-82
2021/06/11 10:39:24;;;;;;;6.97;6.30;;;26.20;66.00;;;27.91;44.53;95102.97;5110528;27;20227;-82
2021/06/11 10:42:04;;;;;;;6.47;5.88;;;26.60;65.20;;;28.26;43.51;95105.34;5090988;28;20277;-82
2021/06/11 10:44:36;;;;;;;7.00;6.30;;;26.90;64.70;;;28.39;42.39;95106.44;5088842;28;20229;-81
2021/06/11 10:47:18;;;;;;;6.60;6.00;;;27.20;63.90;;;28.41;43.10;95106.94;5014170;28;20222;-82
2021/06/11 10:50:00;;;;;;;5.80;5.30;;;27.40;64.30;;;28.42;43.21;95106.63;4972958;28;20228;-82
2021/06/11 10:52:35;;;;;;;6.68;6.07;;;27.50;63.80;;;28.46;43.48;95111.44;4960524;28;20231;-81
2021/06/11 10:55:45;;;;;;;6.40;5.80;;;27.60;63.20;;;28.47;42.43;95108.41;5149411;27;21097;-82
2021/06/11 10:58:11;;;;;;;6.65;6.05;;;27.70;63.10;;;28.52;42.17;95099.44;5060436;28;20239;-83
2021/06/11 11:00:40;;;;;;;6.20;5.70;;;27.70;62.70;;;28.55;42.17;95096.13;5091466;28;20201;-81
2021/06/11 11:03:23;;;;;;;6.88;5.65;;;27.80;62.80;;;28.68;42.53;95089.09;5055097;28;20211;-81
2021/06/11 11:05:50;;;;;;;6.63;6.03;;;27.90;62.90;;;28.83;42.46;95090.69;5058012;28;20212;-81
2021/06/11 11:08:16;;;;;;;6.57;6.00;;;28.00;62.80;;;28.90;42.47;95082.97;5020682;28;20798;-81
2021/06/11 11:10:47;;;;;;;5.50;5.10;;;28.10;62.70;;;28.92;42.29;95083.47;4874244;29;20215;-81
2021/06/11 11:14:05;;;;;;;5.80;5.20;;;28.20;62.60;;;28.75;40.55;95079.50;5139408;27;20673;-81
2021/06/11 11:16:34;;;;;;;6.22;5.63;;;28.30;61.10;;;28.65;41.44;95085.13;5085402;28;21213;-82
2021/06/11 11:19:05;;;;;;;5.75;5.30;;;28.20;61.10;;;28.50;41.42;95083.53;5085077;28;20230;-81